Amsterdam, New York
Current Conditions -  °F | °C
As of 12:15 PM on Thursday 23 Oct 2014 (Local Time) from KNY0 Reporting Station
Overcast Overcast  
Wind Chill:   Ceiling: 1800
Heat Index:   Visibility: 3mi
Dew Point:   Wind: 5mph
Humidity: 97%   Direction: 270°W
Pressure: 29.86"   Gusts: NA
Location:  42.94°N, 74.19°W
Report Text: KNY0 231615Z AUTO 27004KT 3SM SCT001 BKN018 OVC023 08/07 A2986 RMK AO2 P0003 T00750071
Loading
Personal Weather Stations






























Interactive Weather Map New forecast layout! Learn more

10-Day Weather Forecast

Advertisements
Track Severe Weather on mobile